Time;durP1;ratioP1;P1;durP2;ratioP2;P2;SDS_P1;SDS_P2;PMS_P1;PMS_P2;Temp;Humidity;BMP_temperature;BMP_pressure;BME280_temperature;BME280_humidity;BME280_pressure;Samples;Min_cycle;Max_cycle;Signal;HPM_P1;HPM_P2
2022/09/14 00:01:42;;;;;;;;;;;20.70;82.10;;;;;;5097049;28;19935;-56
2022/09/14 00:04:10;;;;;;;;;;;20.70;82.10;;;;;;5096827;28;19920;-56
2022/09/14 00:06:36;;;;;;;;;;;20.70;82.10;;;;;;5079064;28;19908;-53
2022/09/14 00:09:02;;;;;;;;;;;20.70;82.10;;;;;;5096976;28;20350;-54
2022/09/14 00:11:29;;;;;;;;;;;20.70;82.10;;;;;;5097426;28;19912;-54
2022/09/14 00:13:56;;;;;;;;;;;20.70;82.10;;;;;;5097205;28;19961;-56
2022/09/14 00:16:26;;;;;;;;;;;20.70;82.10;;;;;;5097398;28;20346;-54
2022/09/14 00:18:52;;;;;;;;;;;20.70;82.10;;;;;;5078717;28;19915;-55
2022/09/14 00:21:18;;;;;;;;;;;20.70;82.10;;;;;;5096819;28;19908;-54
2022/09/14 00:23:43;;;;;;;;;;;20.70;82.10;;;;;;5096941;28;19916;-55
2022/09/14 00:26:11;;;;;;;;;;;20.70;82.10;;;;;;5096970;28;19911;-52
2022/09/14 00:28:38;;;;;;;;;;;20.70;82.10;;;;;;5096655;28;19916;-53
2022/09/14 00:31:04;;;;;;;;;;;20.70;82.10;;;;;;5078858;28;19962;-54
2022/09/14 00:33:29;;;;;;;;;;;20.70;82.10;;;;;;5096986;28;19947;-53
2022/09/14 00:35:55;;;;;;;;;;;20.70;82.10;;;;;;5078661;28;19943;-53
2022/09/14 00:38:20;;;;;;;;;;;20.70;82.10;;;;;;5096531;28;19912;-54
2022/09/14 00:40:55;;;;;;;;;;;20.70;82.00;;;;;;5097049;28;19961;-54
2022/09/14 00:43:20;;;;;;;;;;;20.70;82.10;;;;;;5096549;28;19958;-56
2022/09/14 00:45:46;;;;;;;;;;;20.70;82.10;;;;;;5096634;28;20304;-53
2022/09/14 00:48:11;;;;;;;;;;;20.70;82.00;;;;;;5096646;28;19935;-53
2022/09/14 00:50:38;;;;;;;;;;;20.70;82.00;;;;;;5096498;28;19912;-56
2022/09/14 00:53:04;;;;;;;;;;;20.70;82.00;;;;;;5096044;28;19908;-55
2022/09/14 00:55:30;;;;;;;;;;;20.70;82.10;;;;;;5112238;28;19912;-54
2022/09/14 00:57:55;;;;;;;;;;;20.70;82.00;;;;;;5096093;28;20378;-55
2022/09/14 01:00:23;;;;;;;;;;;20.70;82.00;;;;;;5096398;28;19908;-56
2022/09/14 01:02:49;;;;;;;;;;;20.70;82.00;;;;;;5096039;28;20266;-53
2022/09/14 01:05:15;;;;;;;;;;;20.70;82.00;;;;;;5078334;28;19908;-56
2022/09/14 01:07:49;;;;;;;;;;;20.70;82.00;;;;;;5077978;28;20372;-55
2022/09/14 01:10:32;;;;;;;;;;;20.70;82.00;;;;;;5077941;28;19919;-54
2022/09/14 01:12:57;;;;;;;;;;;20.70;82.00;;;;;;5096234;28;19959;-54
2022/09/14 01:15:23;;;;;;;;;;;20.70;82.00;;;;;;5095966;28;19951;-54
2022/09/14 01:17:52;;;;;;;;;;;20.70;82.00;;;;;;5095635;28;20373;-55
2022/09/14 01:20:36;;;;;;;;;;;20.70;82.00;;;;;;5095641;28;19915;-54
2022/09/14 01:23:20;;;;;;;;;;;20.70;82.00;;;;;;5095480;28;20347;-56
2022/09/14 01:26:24;;;;;;;;;;;20.70;82.00;;;;;;5095445;28;19922;-57
2022/09/14 01:28:52;;;;;;;;;;;20.70;82.00;;;;;;5033048;28;19913;-56
2022/09/14 01:31:25;;;;;;;;;;;20.70;82.00;;;;;;5033167;28;20302;-56
2022/09/14 01:33:53;;;;;;;;;;;20.70;82.50;;;;;;5049084;28;20018;-52
2022/09/14 01:36:19;;;;;;;;;;;20.70;82.00;;;;;;5095486;28;19908;-55
2022/09/14 01:38:50;;;;;;;;;;;20.70;82.00;;;;;;5095808;28;19971;-53
2022/09/14 01:41:17;;;;;;;;;;;20.70;82.00;;;;;;5095439;28;19990;-52
2022/09/14 01:43:49;;;;;;;;;;;20.80;82.10;;;;;;5095429;28;19908;-56
2022/09/14 01:46:19;;;;;;;;;;;20.70;82.00;;;;;;5095400;28;19931;-53
2022/09/14 01:48:47;;;;;;;;;;;20.70;82.00;;;;;;5094928;28;19912;-56
2022/09/14 01:51:15;;;;;;;;;;;20.70;82.00;;;;;;5095314;28;19919;-55
2022/09/14 01:53:48;;;;;;;;;;;20.70;82.00;;;;;;5076978;28;19912;-57
2022/09/14 01:56:20;;;;;;;;;;;20.80;82.10;;;;;;5094879;28;20330;-56
2022/09/14 01:58:54;;;;;;;;;;;20.80;82.10;;;;;;5094850;28;20011;-55
2022/09/14 02:01:23;;;;;;;;;;;20.80;82.10;;;;;;5094849;28;19978;-54
2022/09/14 02:03:52;;;;;;;;;;;20.80;82.10;;;;;;5094053;28;19920;-57
2022/09/14 02:06:17;;;;;;;;;;;20.80;82.10;;;;;;5095050;28;19908;-56
2022/09/14 02:08:43;;;;;;;;;;;20.80;82.10;;;;;;5076312;28;19962;-55
2022/09/14 02:11:09;;;;;;;;;;;20.70;82.10;;;;;;5094939;28;19916;-53
2022/09/14 02:13:34;;;;;;;;;;;20.80;82.10;;;;;;5094862;28;19908;-54
2022/09/14 02:16:00;;;;;;;;;;;20.80;82.10;;;;;;5094548;28;20440;-53
2022/09/14 02:18:25;;;;;;;;;;;20.80;82.10;;;;;;5076627;28;20287;-52
2022/09/14 02:20:53;;;;;;;;;;;20.80;82.10;;;;;;5094364;28;19930;-56
2022/09/14 02:23:19;;;;;;;;;;;20.80;82.10;;;;;;5094692;28;19908;-53
2022/09/14 02:25:45;;;;;;;;;;;20.80;82.10;;;;;;5094402;28;20003;-53
2022/09/14 02:28:10;;;;;;;;;;;20.80;82.10;;;;;;5076436;28;19916;-54
2022/09/14 02:30:48;;;;;;;;;;;20.80;82.10;;;;;;5094310;28;20011;-53
2022/09/14 02:33:22;;;;;;;;;;;20.80;82.10;;;;;;5094640;28;20319;-54
2022/09/14 02:35:50;;;;;;;;;;;20.80;82.10;;;;;;5094266;28;19915;-56
2022/09/14 02:38:26;;;;;;;;;;;20.80;82.10;;;;;;5094228;28;20327;-54
2022/09/14 02:40:55;;;;;;;;;;;20.80;82.10;;;;;;5094139;28;19995;-56
2022/09/14 02:43:24;;;;;;;;;;;20.80;82.10;;;;;;5076419;28;19912;-57
2022/09/14 02:46:08;;;;;;;;;;;20.80;82.10;;;;;;5094449;28;20259;-53
2022/09/14 02:48:33;;;;;;;;;;;20.80;82.10;;;;;;5094181;28;20339;-56
2022/09/14 02:51:15;;;;;;;;;;;20.80;82.10;;;;;;5094043;28;19913;-56
2022/09/14 02:54:01;;;;;;;;;;;20.80;82.10;;;;;;5094054;28;19916;-56
2022/09/14 02:56:27;;;;;;;;;;;20.80;82.20;;;;;;5094072;28;19908;-55
2022/09/14 02:58:53;;;;;;;;;;;20.80;82.10;;;;;;5076165;28;19908;-54
2022/09/14 03:01:21;;;;;;;;;;;20.80;82.10;;;;;;5093911;28;19941;-54
2022/09/14 03:03:46;;;;;;;;;;;20.80;82.10;;;;;;5094133;28;19926;-54
2022/09/14 03:06:12;;;;;;;;;;;20.80;82.10;;;;;;5094125;28;20026;-57
2022/09/14 03:08:38;;;;;;;;;;;20.80;82.10;;;;;;5093981;28;19912;-56
2022/09/14 03:11:04;;;;;;;;;;;20.80;82.10;;;;;;5076051;28;19965;-54
2022/09/14 03:13:29;;;;;;;;;;;20.80;82.10;;;;;;5094160;28;20311;-55
2022/09/14 03:15:55;;;;;;;;;;;20.80;82.10;;;;;;5094677;28;19908;-55
2022/09/14 03:18:20;;;;;;;;;;;20.80;82.10;;;;;;5098567;28;19934;-56
2022/09/14 03:20:46;;;;;;;;;;;20.80;82.10;;;;;;5097953;28;20411;-56
2022/09/14 03:23:12;;;;;;;;;;;20.80;82.10;;;;;;5079896;28;19915;-53
2022/09/14 03:25:39;;;;;;;;;;;20.80;82.10;;;;;;5097719;28;20361;-54
2022/09/14 03:28:05;;;;;;;;;;;20.80;82.10;;;;;;5097655;28;19912;-54
2022/09/14 03:30:31;;;;;;;;;;;20.80;82.10;;;;;;5097807;28;19939;-50
2022/09/14 03:32:57;;;;;;;;;;;20.80;82.10;;;;;;5097763;28;19908;-55
2022/09/14 03:35:23;;;;;;;;;;;20.80;82.20;;;;;;5097888;28;19908;-53
2022/09/14 03:37:48;;;;;;;;;;;20.80;82.10;;;;;;5097451;28;19931;-57
2022/09/14 03:40:14;;;;;;;;;;;20.80;82.10;;;;;;5098083;28;20003;-56
2022/09/14 03:42:41;;;;;;;;;;;20.80;82.10;;;;;;5097451;28;19908;-53
2022/09/14 03:45:07;;;;;;;;;;;20.80;82.10;;;;;;5079316;28;19943;-56
2022/09/14 03:47:32;;;;;;;;;;;20.80;82.10;;;;;;5079336;28;20372;-56
2022/09/14 03:49:58;;;;;;;;;;;20.80;82.10;;;;;;5079315;28;20007;-55
2022/09/14 03:52:23;;;;;;;;;;;20.80;82.10;;;;;;5097355;28;19912;-53
2022/09/14 03:54:49;;;;;;;;;;;20.80;82.10;;;;;;5097159;28;20404;-53
2022/09/14 03:57:14;;;;;;;;;;;20.80;82.10;;;;;;5097488;28;19916;-56
2022/09/14 03:59:40;;;;;;;;;;;20.80;82.10;;;;;;5097044;28;19915;-54
2022/09/14 04:02:05;;;;;;;;;;;20.80;82.10;;;;;;5097398;28;19958;-52
2022/09/14 04:04:31;;;;;;;;;;;20.80;82.10;;;;;;5097359;28;20007;-55
2022/09/14 04:06:56;;;;;;;;;;;20.80;82.10;;;;;;5096958;28;20370;-57
2022/09/14 04:09:22;;;;;;;;;;;20.80;82.10;;;;;;5097101;28;20243;-57
2022/09/14 04:11:47;;;;;;;;;;;20.80;82.10;;;;;;5096813;28;19912;-54
2022/09/14 04:14:13;;;;;;;;;;;20.80;82.10;;;;;;5096937;28;20297;-53
2022/09/14 04:16:39;;;;;;;;;;;20.80;82.10;;;;;;5096930;28;19914;-56
2022/09/14 04:19:05;;;;;;;;;;;20.80;82.10;;;;;;5096973;28;19908;-52
2022/09/14 04:21:30;;;;;;;;;;;20.80;82.10;;;;;;5096963;28;19912;-54
2022/09/14 04:23:56;;;;;;;;;;;20.80;82.10;;;;;;5096551;28;19908;-56
2022/09/14 04:26:23;;;;;;;;;;;20.80;82.10;;;;;;5096249;28;19916;-55
2022/09/14 04:28:48;;;;;;;;;;;20.80;82.10;;;;;;5078638;28;20343;-53
2022/09/14 04:31:14;;;;;;;;;;;20.80;82.10;;;;;;5096677;28;19937;-52
2022/09/14 04:33:40;;;;;;;;;;;20.80;82.10;;;;;;5096411;28;20358;-56
2022/09/14 04:36:07;;;;;;;;;;;20.80;82.10;;;;;;5096321;28;19944;-57
2022/09/14 04:38:34;;;;;;;;;;;20.80;82.10;;;;;;5096471;28;19908;-52
2022/09/14 04:40:59;;;;;;;;;;;20.80;82.10;;;;;;5096293;28;19908;-56
2022/09/14 04:43:25;;;;;;;;;;;20.80;82.10;;;;;;5096374;28;20288;-51
2022/09/14 04:45:51;;;;;;;;;;;20.80;82.10;;;;;;5095883;28;19912;-54
2022/09/14 04:48:17;;;;;;;;;;;20.80;82.20;;;;;;5095731;28;20033;-56
2022/09/14 04:50:43;;;;;;;;;;;20.80;82.70;;;;;;5095980;28;19916;-54
2022/09/14 04:53:09;;;;;;;;;;;20.80;82.10;;;;;;5096022;28;20003;-54
2022/09/14 04:55:34;;;;;;;;;;;20.80;82.20;;;;;;5078005;28;19908;-53
2022/09/14 04:58:00;;;;;;;;;;;20.80;82.10;;;;;;5095850;28;19908;-52
2022/09/14 05:00:25;;;;;;;;;;;20.80;82.10;;;;;;5095616;28;20350;-50
2022/09/14 05:02:51;;;;;;;;;;;20.80;82.20;;;;;;5095796;28;19908;-52
2022/09/14 05:05:16;;;;;;;;;;;20.80;82.10;;;;;;5095994;28;19961;-52
2022/09/14 05:07:42;;;;;;;;;;;20.80;82.10;;;;;;5096275;28;19908;-55
2022/09/14 05:10:07;;;;;;;;;;;20.80;82.10;;;;;;5095531;28;19916;-53
2022/09/14 05:12:33;;;;;;;;;;;20.80;82.10;;;;;;5095181;28;20004;-57
2022/09/14 05:14:58;;;;;;;;;;;20.80;82.10;;;;;;5095420;28;20003;-52
2022/09/14 05:17:24;;;;;;;;;;;20.80;82.10;;;;;;5095815;28;20308;-55
2022/09/14 05:19:50;;;;;;;;;;;20.80;82.10;;;;;;5095414;28;20002;-54
2022/09/14 05:22:15;;;;;;;;;;;20.80;82.10;;;;;;5095688;28;19908;-56
2022/09/14 05:24:41;;;;;;;;;;;20.80;82.20;;;;;;5095136;28;19934;-50
2022/09/14 05:27:06;;;;;;;;;;;20.80;82.10;;;;;;5077120;28;19908;-52
2022/09/14 05:29:32;;;;;;;;;;;20.80;82.10;;;;;;5095233;28;20367;-51
2022/09/14 05:31:57;;;;;;;;;;;20.80;82.20;;;;;;5095251;28;19938;-54
2022/09/14 05:34:23;;;;;;;;;;;20.80;82.20;;;;;;5094738;28;19908;-51
2022/09/14 05:36:48;;;;;;;;;;;20.80;82.20;;;;;;5095074;28;19914;-54
2022/09/14 05:39:14;;;;;;;;;;;20.90;82.20;;;;;;5075956;28;19915;-55
2022/09/14 05:41:39;;;;;;;;;;;20.80;82.20;;;;;;5076861;28;19908;-56
2022/09/14 05:44:05;;;;;;;;;;;20.90;82.20;;;;;;5094988;28;20407;-54
2022/09/14 05:46:31;;;;;;;;;;;20.80;82.20;;;;;;5094836;28;19920;-55
2022/09/14 05:48:56;;;;;;;;;;;20.90;82.30;;;;;;5094561;28;19947;-52
2022/09/14 05:51:22;;;;;;;;;;;20.90;82.30;;;;;;5094600;28;20354;-57
2022/09/14 05:53:49;;;;;;;;;;;20.90;82.40;;;;;;5094854;28;19915;-57
2022/09/14 05:56:15;;;;;;;;;;;20.90;82.40;;;;;;5076656;28;19916;-56
2022/09/14 05:58:41;;;;;;;;;;;20.90;82.40;;;;;;5076656;28;20231;-53
2022/09/14 06:01:09;;;;;;;;;;;20.90;82.40;;;;;;5094408;28;20286;-54
2022/09/14 06:03:35;;;;;;;;;;;20.90;82.40;;;;;;5094524;28;20019;-55
2022/09/14 06:06:01;;;;;;;;;;;20.90;82.40;;;;;;5094439;28;19912;-54
2022/09/14 06:08:26;;;;;;;;;;;20.90;82.40;;;;;;5076203;28;19928;-52
2022/09/14 06:10:52;;;;;;;;;;;20.90;82.40;;;;;;5094333;28;19919;-54
2022/09/14 06:13:17;;;;;;;;;;;20.90;82.40;;;;;;5094363;28;19962;-52
2022/09/14 06:15:43;;;;;;;;;;;20.90;82.40;;;;;;5093676;28;19912;-53
2022/09/14 06:18:08;;;;;;;;;;;20.90;82.40;;;;;;5094460;28;19908;-56
2022/09/14 06:20:34;;;;;;;;;;;20.90;82.40;;;;;;5094643;28;20375;-54
2022/09/14 06:22:59;;;;;;;;;;;20.90;82.40;;;;;;5094072;28;19953;-54
2022/09/14 06:25:26;;;;;;;;;;;20.90;82.40;;;;;;5094296;28;20311;-56
2022/09/14 06:27:53;;;;;;;;;;;20.80;82.30;;;;;;5094308;28;20391;-52
2022/09/14 06:30:19;;;;;;;;;;;20.90;82.40;;;;;;5094181;28;19912;-56
2022/09/14 06:32:45;;;;;;;;;;;20.90;82.50;;;;;;5094045;28;20265;-55
2022/09/14 06:35:10;;;;;;;;;;;20.90;82.50;;;;;;5094183;28;19912;-54
2022/09/14 06:37:36;;;;;;;;;;;20.90;82.40;;;;;;5075850;28;19915;-54
2022/09/14 06:40:01;;;;;;;;;;;20.90;82.50;;;;;;5093622;28;19931;-56
2022/09/14 06:42:28;;;;;;;;;;;20.90;82.50;;;;;;5075411;28;19915;-51
2022/09/14 06:44:53;;;;;;;;;;;20.90;83.00;;;;;;5093559;28;20343;-55
2022/09/14 06:47:19;;;;;;;;;;;20.90;82.50;;;;;;5075894;28;19908;-54
2022/09/14 06:49:44;;;;;;;;;;;20.90;82.50;;;;;;5093653;28;19918;-54
2022/09/14 06:52:10;;;;;;;;;;;20.90;82.60;;;;;;5093905;28;19912;-55
2022/09/14 06:54:35;;;;;;;;;;;20.90;82.60;;;;;;5093937;28;19951;-56
2022/09/14 06:57:00;;;;;;;;;;;20.90;82.60;;;;;;5093672;28;20253;-55
2022/09/14 06:59:26;;;;;;;;;;;20.90;82.60;;;;;;5093702;28;19908;-52
2022/09/14 07:01:51;;;;;;;;;;;20.90;82.60;;;;;;5093610;28;20378;-55
2022/09/14 07:04:17;;;;;;;;;;;20.90;82.60;;;;;;5093511;28;19955;-56
2022/09/14 07:06:47;;;;;;;;;;;20.90;82.60;;;;;;5075717;28;20037;-57
2022/09/14 07:09:13;;;;;;;;;;;20.90;82.70;;;;;;5093560;28;19919;-56
2022/09/14 07:11:39;;;;;;;;;;;20.90;82.60;;;;;;5093747;28;19912;-52
2022/09/14 07:14:05;;;;;;;;;;;20.90;83.10;;;;;;5093581;28;19908;-51
2022/09/14 07:16:31;;;;;;;;;;;20.90;82.70;;;;;;5093397;28;20387;-52
2022/09/14 07:18:58;;;;;;;;;;;20.90;82.60;;;;;;5093862;28;19954;-56
2022/09/14 07:21:24;;;;;;;;;;;20.90;82.60;;;;;;5094119;28;19999;-52
2022/09/14 07:23:50;;;;;;;;;;;20.90;82.60;;;;;;5093629;28;19948;-53
2022/09/14 07:26:20;;;;;;;;;;;20.90;83.20;;;;;;5093744;28;19908;-57
2022/09/14 07:28:47;;;;;;;;;;;20.90;82.60;;;;;;5093723;28;19920;-57
2022/09/14 07:31:20;;;;;;;;;;;20.90;82.70;;;;;;5093616;28;19952;-53
2022/09/14 07:33:46;;;;;;;;;;;20.90;82.70;;;;;;5075477;28;20309;-56
2022/09/14 07:36:13;;;;;;;;;;;20.90;82.60;;;;;;5075619;28;19908;-56
2022/09/14 07:38:38;;;;;;;;;;;20.90;82.70;;;;;;5075376;28;19953;-56
2022/09/14 07:41:04;;;;;;;;;;;20.90;82.60;;;;;;5093566;28;19908;-56
2022/09/14 07:43:29;;;;;;;;;;;20.90;82.60;;;;;;5093275;28;20007;-55
2022/09/14 07:45:55;;;;;;;;;;;20.90;82.60;;;;;;5093848;28;19950;-56
2022/09/14 07:48:21;;;;;;;;;;;20.90;82.60;;;;;;5093530;28;19916;-53
2022/09/14 07:50:46;;;;;;;;;;;20.90;82.60;;;;;;5093555;28;20369;-56
2022/09/14 07:53:13;;;;;;;;;;;20.90;82.60;;;;;;5075588;28;20274;-52
2022/09/14 07:55:39;;;;;;;;;;;20.90;82.60;;;;;;5093077;28;19908;-55
2022/09/14 07:58:04;;;;;;;;;;;20.90;82.60;;;;;;5093481;28;19909;-54
2022/09/14 08:00:30;;;;;;;;;;;20.90;82.60;;;;;;5093008;28;19912;-54
2022/09/14 08:02:56;;;;;;;;;;;20.90;82.60;;;;;;5095678;28;19995;-53
2022/09/14 08:05:22;;;;;;;;;;;21.00;82.70;;;;;;5096723;28;19952;-57
2022/09/14 08:07:52;;;;;;;;;;;20.90;82.60;;;;;;5097259;28;19967;-56
2022/09/14 08:10:17;;;;;;;;;;;21.00;82.60;;;;;;5096957;28;19916;-53
2022/09/14 08:12:43;;;;;;;;;;;21.00;82.70;;;;;;5078880;28;19908;-55
2022/09/14 08:15:09;;;;;;;;;;;21.00;82.70;;;;;;5097062;28;19935;-54
2022/09/14 08:17:34;;;;;;;;;;;21.00;82.70;;;;;;5097030;28;20265;-54
2022/09/14 08:20:00;;;;;;;;;;;21.00;82.70;;;;;;5096909;28;19912;-56
2022/09/14 08:22:26;;;;;;;;;;;21.00;82.70;;;;;;5096949;28;19908;-57
2022/09/14 08:24:51;;;;;;;;;;;21.00;82.80;;;;;;5078814;28;19908;-53
2022/09/14 08:27:17;;;;;;;;;;;21.00;82.80;;;;;;5096556;28;19908;-56
2022/09/14 08:29:42;;;;;;;;;;;21.00;82.80;;;;;;5096640;28;19912;-56
2022/09/14 08:32:10;;;;;;;;;;;21.00;82.80;;;;;;5097094;28;19916;-57
2022/09/14 08:34:35;;;;;;;;;;;21.00;82.80;;;;;;5078406;28;19916;-56
2022/09/14 08:37:01;;;;;;;;;;;21.00;82.80;;;;;;5096922;28;19912;-56
2022/09/14 08:39:26;;;;;;;;;;;21.00;82.80;;;;;;5096377;28;19915;-56
2022/09/14 08:41:53;;;;;;;;;;;21.00;82.80;;;;;;5096446;28;20355;-54
2022/09/14 08:44:19;;;;;;;;;;;21.00;82.80;;;;;;5096474;28;19953;-55
2022/09/14 08:46:56;;;;;;;;;;;21.00;82.90;;;;;;5096408;28;19908;-55
2022/09/14 08:49:22;;;;;;;;;;;21.00;82.90;;;;;;5096423;28;19912;-54
2022/09/14 08:51:49;;;;;;;;;;;21.00;82.90;;;;;;5096250;28;20286;-55
2022/09/14 08:54:14;;;;;;;;;;;21.00;82.90;;;;;;5095868;28;19908;-57
2022/09/14 08:56:41;;;;;;;;;;;21.00;82.80;;;;;;5095891;28;20362;-54
2022/09/14 08:59:10;;;;;;;;;;;21.00;82.90;;;;;;5095665;28;19908;-56
2022/09/14 09:01:54;;;;;;;;;;;21.00;82.90;;;;;;5095554;28;19908;-51
2022/09/14 09:04:27;;;;;;;;;;;21.00;82.90;;;;;;5096042;28;20062;-56
2022/09/14 09:06:59;;;;;;;;;;;21.00;82.90;;;;;;5095845;28;19908;-53
2022/09/14 09:09:43;;;;;;;;;;;21.00;82.90;;;;;;5096118;28;19912;-56
2022/09/14 09:12:13;;;;;;;;;;;21.00;83.00;;;;;;5077713;28;19912;-54
2022/09/14 09:14:41;;;;;;;;;;;21.00;83.00;;;;;;5095736;28;19991;-55
2022/09/14 09:17:14;;;;;;;;;;;21.00;83.00;;;;;;5077669;28;19915;-56
2022/09/14 09:20:02;;;;;;;;;;;21.00;83.00;;;;;;5095720;28;19992;-53
2022/09/14 09:22:30;;;;;;;;;;;21.00;83.10;;;;;;5077616;28;19912;-54
2022/09/14 09:24:56;;;;;;;;;;;21.00;83.00;;;;;;5096048;28;19953;-54
2022/09/14 09:27:23;;;;;;;;;;;21.10;83.10;;;;;;5095493;28;20035;-55
2022/09/14 09:29:48;;;;;;;;;;;21.00;83.10;;;;;;5095510;28;20267;-52
2022/09/14 09:32:18;;;;;;;;;;;21.10;83.20;;;;;;5095157;28;19916;-54
2022/09/14 09:34:43;;;;;;;;;;;21.00;83.20;;;;;;5095250;28;19908;-56
2022/09/14 09:37:16;;;;;;;;;;;21.00;83.10;;;;;;5095204;28;19942;-54
2022/09/14 09:39:42;;;;;;;;;;;21.10;83.20;;;;;;5095249;28;19908;-56
2022/09/14 09:42:13;;;;;;;;;;;21.00;83.10;;;;;;5095174;28;19953;-55
2022/09/14 09:44:57;;;;;;;;;;;21.10;83.20;;;;;;5094490;28;19908;-55
2022/09/14 09:47:31;;;;;;;;;;;21.10;83.20;;;;;;5076611;28;20267;-53
2022/09/14 09:50:05;;;;;;;;;;;21.10;83.30;;;;;;5076572;28;19965;-55
2022/09/14 09:52:31;;;;;;;;;;;21.10;83.80;;;;;;5094414;28;19958;-55
2022/09/14 09:54:57;;;;;;;;;;;21.10;83.20;;;;;;5095035;28;19908;-56
2022/09/14 09:57:30;;;;;;;;;;;21.10;83.20;;;;;;5076530;28;19991;-54
2022/09/14 10:00:14;;;;;;;;;;;21.10;83.20;;;;;;5094887;28;19908;-55
2022/09/14 10:02:40;;;;;;;;;;;21.10;83.30;;;;;;5094680;28;19951;-56
2022/09/14 10:05:08;;;;;;;;;;;21.10;83.30;;;;;;5076529;28;19961;-55
2022/09/14 10:07:36;;;;;;;;;;;21.10;83.30;;;;;;5076273;28;19912;-54
2022/09/14 10:10:07;;;;;;;;;;;21.10;83.30;;;;;;5094310;28;19956;-55
2022/09/14 10:12:36;;;;;;;;;;;21.10;83.30;;;;;;5094415;28;20220;-54
2022/09/14 10:15:06;;;;;;;;;;;21.10;83.30;;;;;;5094498;28;20296;-55
2022/09/14 10:17:32;;;;;;;;;;;21.10;83.30;;;;;;5094319;28;20324;-54
2022/09/14 10:19:58;;;;;;;;;;;21.10;83.80;;;;;;5094592;28;19908;-56
2022/09/14 10:22:27;;;;;;;;;;;21.10;83.30;;;;;;5094226;28;19916;-52
2022/09/14 10:24:53;;;;;;;;;;;21.10;83.30;;;;;;5075798;28;19915;-52
2022/09/14 10:27:54;;;;;;;;;;;21.10;83.30;;;;;;5094167;28;20282;-54
2022/09/14 10:30:20;;;;;;;;;;;21.10;83.30;;;;;;5031760;28;19917;-52
2022/09/14 10:32:53;;;;;;;;;;;21.10;83.40;;;;;;5081552;28;19994;-55
2022/09/14 10:35:19;;;;;;;;;;;21.10;83.30;;;;;;5094677;28;19908;-56
2022/09/14 10:38:04;;;;;;;;;;;21.10;83.30;;;;;;5094080;28;19908;-54
2022/09/14 10:40:34;;;;;;;;;;;21.10;83.30;;;;;;5093883;28;20366;-54
2022/09/14 10:43:08;;;;;;;;;;;21.10;83.40;;;;;;5094153;28;20331;-57
2022/09/14 10:45:37;;;;;;;;;;;21.10;83.40;;;;;;5093845;28;19908;-56
2022/09/14 10:48:21;;;;;;;;;;;21.10;83.40;;;;;;5093905;28;19915;-55
2022/09/14 10:50:53;;;;;;;;;;;21.10;83.40;;;;;;5094212;28;19935;-54
2022/09/14 10:53:18;;;;;;;;;;;21.10;83.40;;;;;;5094459;28;19908;-54
2022/09/14 10:55:57;;;;;;;;;;;21.10;83.40;;;;;;5093719;28;19912;-55
2022/09/14 10:58:28;;;;;;;;;;;21.10;83.40;;;;;;5093675;28;20350;-56
2022/09/14 11:01:06;;;;;;;;;;;21.10;83.40;;;;;;5094094;28;20311;-55
2022/09/14 11:03:32;;;;;;;;;;;21.10;83.40;;;;;;5093340;28;19920;-57
2022/09/14 11:06:12;;;;;;;;;;;21.10;83.40;;;;;;5094006;28;19912;-54
2022/09/14 11:08:43;;;;;;;;;;;21.20;83.40;;;;;;5075641;28;20014;-57
2022/09/14 11:11:26;;;;;;;;;;;21.20;83.40;;;;;;5093754;28;19941;-57
2022/09/14 11:13:57;;;;;;;;;;;21.10;83.40;;;;;;5093866;28;20418;-53
2022/09/14 11:16:30;;;;;;;;;;;21.20;83.40;;;;;;5075459;28;19957;-53
2022/09/14 11:19:07;;;;;;;;;;;21.20;83.50;;;;;;5093670;28;19908;-54
2022/09/14 11:21:51;;;;;;;;;;;21.10;83.40;;;;;;5093244;28;19908;-55
2022/09/14 11:24:23;;;;;;;;;;;21.20;83.50;;;;;;5093098;28;20007;-56
2022/09/14 11:27:03;;;;;;;;;;;21.20;83.40;;;;;;5093341;28;19973;-52
2022/09/14 11:29:34;;;;;;;;;;;21.20;83.40;;;;;;5075254;28;19918;-57
2022/09/14 11:32:05;;;;;;;;;;;21.20;83.50;;;;;;5075459;28;20386;-55
2022/09/14 11:34:36;;;;;;;;;;;21.20;83.50;;;;;;5075481;28;19908;-57
2022/09/14 11:37:07;;;;;;;;;;;21.20;83.50;;;;;;5094641;28;19909;-57
2022/09/14 11:39:34;;;;;;;;;;;21.20;83.50;;;;;;5097157;28;19908;-56
2022/09/14 11:42:01;;;;;;;;;;;21.20;83.50;;;;;;5097308;28;19915;-52
2022/09/14 11:44:36;;;;;;;;;;;21.20;83.50;;;;;;5097345;28;20366;-56
2022/09/14 11:47:01;;;;;;;;;;;21.20;83.50;;;;;;5097342;28;19919;-55
2022/09/14 11:49:29;;;;;;;;;;;21.20;83.50;;;;;;5097077;28;20427;-55
2022/09/14 11:52:01;;;;;;;;;;;21.20;83.50;;;;;;5097264;28;19919;-52
2022/09/14 11:54:26;;;;;;;;;;;21.20;83.50;;;;;;5097404;28;19995;-51
2022/09/14 11:57:00;;;;;;;;;;;21.20;83.50;;;;;;5097074;28;19951;-56
2022/09/14 11:59:34;;;;;;;;;;;21.20;83.50;;;;;;5097040;28;19914;-53
2022/09/14 12:02:18;;;;;;;;;;;21.20;83.50;;;;;;5096934;28;19908;-56
2022/09/14 12:05:02;;;;;;;;;;;21.20;83.50;;;;;;5078309;28;20404;-53
2022/09/14 12:07:46;;;;;;;;;;;21.20;83.50;;;;;;5097185;28;20006;-54
2022/09/14 12:10:17;;;;;;;;;;;21.20;83.50;;;;;;5078953;28;20025;-55
2022/09/14 12:12:51;;;;;;;;;;;21.20;83.50;;;;;;5096916;28;19916;-53
2022/09/14 12:15:21;;;;;;;;;;;21.20;83.50;;;;;;5078677;28;19908;-56
2022/09/14 12:17:46;;;;;;;;;;;21.20;83.50;;;;;;5096720;28;19931;-56
2022/09/14 12:20:39;;;;;;;;;;;21.20;83.50;;;;;;5096631;28;20351;-56
2022/09/14 12:23:19;;;;;;;;;;;21.20;83.50;;;;;;5073578;28;19947;-56
2022/09/14 12:25:53;;;;;;;;;;;21.20;83.50;;;;;;5096843;28;20275;-52
2022/09/14 12:28:39;;;;;;;;;;;21.20;83.50;;;;;;5096683;28;19909;-54
2022/09/14 12:31:04;;;;;;;;;;;21.20;83.50;;;;;;5096634;28;19919;-51
2022/09/14 12:33:32;;;;;;;;;;;21.20;83.50;;;;;;5096273;28;20297;-55
2022/09/14 12:35:58;;;;;;;;;;;21.30;83.60;;;;;;5096157;28;19912;-53
2022/09/14 12:38:29;;;;;;;;;;;21.20;83.50;;;;;;5096635;28;20007;-54
2022/09/14 12:40:55;;;;;;;;;;;21.20;83.50;;;;;;5096126;28;20060;-52
2022/09/14 12:43:33;;;;;;;;;;;21.30;83.60;;;;;;5096462;28;20353;-50
2022/09/14 12:46:09;;;;;;;;;;;21.30;83.60;;;;;;5078126;28;20355;-56
2022/09/14 12:48:43;;;;;;;;;;;21.30;83.60;;;;;;5095829;28;19912;-52
2022/09/14 12:51:12;;;;;;;;;;;21.30;83.60;;;;;;5095863;28;19920;-56
2022/09/14 12:53:37;;;;;;;;;;;21.20;83.50;;;;;;5095681;28;20001;-57
2022/09/14 12:56:05;;;;;;;;;;;21.30;83.60;;;;;;5096203;28;19971;-56
2022/09/14 12:58:48;;;;;;;;;;;21.30;83.60;;;;;;5095686;28;20318;-56
2022/09/14 13:01:21;;;;;;;;;;;21.20;83.50;;;;;;5095956;28;19915;-56
2022/09/14 13:03:50;;;;;;;;;;;21.30;83.60;;;;;;5095962;28;19966;-56
2022/09/14 13:06:16;;;;;;;;;;;21.30;83.60;;;;;;5095958;28;19909;-53
2022/09/14 13:08:47;;;;;;;;;;;21.30;83.60;;;;;;5095627;28;19935;-54
2022/09/14 13:11:19;;;;;;;;;;;21.30;83.60;;;;;;5095606;28;19912;-55
2022/09/14 13:13:46;;;;;;;;;;;21.30;83.60;;;;;;5095685;28;19919;-54
2022/09/14 13:16:15;;;;;;;;;;;21.30;83.60;;;;;;5095415;28;19931;-55
2022/09/14 13:18:40;;;;;;;;;;;21.30;84.10;;;;;;5095615;28;20003;-54
2022/09/14 13:21:23;;;;;;;;;;;21.30;83.50;;;;;;5095650;28;19948;-54
2022/09/14 13:23:49;;;;;;;;;;;21.30;83.50;;;;;;5077472;28;20343;-56
2022/09/14 13:26:19;;;;;;;;;;;21.30;83.50;;;;;;5095494;28;19990;-55
2022/09/14 13:28:46;;;;;;;;;;;21.30;83.50;;;;;;5095270;28;20290;-54
2022/09/14 13:31:31;;;;;;;;;;;21.30;83.40;;;;;;5077209;28;20260;-55
2022/09/14 13:33:57;;;;;;;;;;;21.30;83.40;;;;;;5094727;28;19999;-53
2022/09/14 13:36:24;;;;;;;;;;;21.30;83.40;;;;;;5095039;28;19995;-53
2022/09/14 13:38:50;;;;;;;;;;;21.30;83.90;;;;;;5095318;28;19908;-57
2022/09/14 13:41:17;;;;;;;;;;;21.30;83.40;;;;;;5094952;28;19908;-55
2022/09/14 13:43:44;;;;;;;;;;;21.30;83.40;;;;;;5094998;28;19915;-53
2022/09/14 13:46:10;;;;;;;;;;;21.30;83.40;;;;;;5094936;28;19990;-55
2022/09/14 13:48:40;;;;;;;;;;;21.30;83.40;;;;;;5095109;28;20067;-56
2022/09/14 13:51:06;;;;;;;;;;;21.30;83.40;;;;;;5095013;28;19912;-54
2022/09/14 13:53:39;;;;;;;;;;;21.30;83.40;;;;;;5095209;28;20112;-54
2022/09/14 13:56:34;;;;;;;;;;;21.30;83.40;;;;;;5094775;28;19908;-55
2022/09/14 13:59:06;;;;;;;;;;;21.30;83.30;;;;;;5080415;28;19916;-56
2022/09/14 14:01:34;;;;;;;;;;;21.30;83.30;;;;;;5094339;28;20350;-52
2022/09/14 14:03:59;;;;;;;;;;;21.30;83.40;;;;;;5094181;28;19927;-57
2022/09/14 14:06:26;;;;;;;;;;;21.30;83.40;;;;;;5094021;28;20282;-56
2022/09/14 14:09:00;;;;;;;;;;;21.30;83.30;;;;;;5094458;28;19923;-56
2022/09/14 14:11:27;;;;;;;;;;;21.30;83.30;;;;;;5094428;28;19919;-54
2022/09/14 14:13:53;;;;;;;;;;;21.30;83.30;;;;;;5094586;28;20266;-55
2022/09/14 14:16:20;;;;;;;;;;;21.30;83.30;;;;;;5094179;28;20374;-54
2022/09/14 14:18:48;;;;;;;;;;;21.30;83.30;;;;;;5094151;28;20029;-56
2022/09/14 14:21:16;;;;;;;;;;;21.30;83.30;;;;;;5093937;28;19908;-55
2022/09/14 14:23:42;;;;;;;;;;;21.30;83.20;;;;;;5093974;28;19939;-54
2022/09/14 14:26:09;;;;;;;;;;;21.30;83.20;;;;;;5094395;28;19914;-57